Terminal Aerodrome Forecast
Issued by NWS San Angelo, TX

Home | Current Version | Previous Version | Text Only | Print | Product List | Glossary On
Versions: 1 2 3 4 5 6 7 8 9 10 11 12 13
000
FTUS44 KSJT 182328
TAFABI
TAF
KABI 182328Z 1900/1924 18018G24KT P6SM FEW020 SCT250
     FM190700 17017G25KT P6SM OVC030
     FM191100 18017G23KT P6SM OVC015
     FM192000 20015G24KT P6SM SCT050=

USA.gov is the U.S. government's official web portal to all federal, state and local government web resources and services.